Time;durP1;ratioP1;P1;durP2;ratioP2;P2;SDS_P1;SDS_P2;PMS_P1;PMS_P2;Temp;Humidity;BMP_temperature;BMP_pressure;BME280_temperature;BME280_humidity;BME280_pressure;Samples;Min_cycle;Max_cycle;Signal;HPM_P1;HPM_P2
2023/01/20 00:00:18;;;;;;;21.60;14.57;;;2.10;99.90;;;;;;5027542;28;20045;-59
2023/01/20 00:03:04;;;;;;;26.02;13.63;;;2.10;99.90;;;;;;5018554;28;20033;-57
2023/01/20 00:05:50;;;;;;;25.42;15.55;;;2.10;99.90;;;;;;5013439;28;20284;-57
2023/01/20 00:08:37;;;;;;;25.98;15.93;;;2.10;99.90;;;;;;5014695;28;20113;-51
2023/01/20 00:11:24;;;;;;;26.40;14.80;;;2.10;99.90;;;;;;5011843;28;20029;-53
2023/01/20 00:14:11;;;;;;;24.25;14.23;;;2.10;99.90;;;;;;5012290;28;20022;-52
2023/01/20 00:16:58;;;;;;;24.00;14.63;;;2.10;99.90;;;;;;5012730;28;20061;-54
2023/01/20 00:19:44;;;;;;;21.58;14.18;;;2.10;99.90;;;;;;5014048;28;20542;-50
2023/01/20 00:22:31;;;;;;;26.02;14.73;;;2.10;99.90;;;;;;5012913;28;20038;-53
2023/01/20 00:25:16;;;;;;;27.02;15.38;;;2.20;99.90;;;;;;4999663;28;20026;-57
2023/01/20 00:28:03;;;;;;;24.38;14.50;;;2.00;99.90;;;;;;5012209;28;20032;-50
2023/01/20 00:30:49;;;;;;;25.88;15.20;;;2.00;99.90;;;;;;5010572;28;20049;-52
2023/01/20 00:33:35;;;;;;;30.05;15.88;;;1.90;99.90;;;;;;5014725;28;20030;-52
2023/01/20 00:36:22;;;;;;;26.90;16.10;;;1.90;99.90;;;;;;5013141;28;20030;-54
2023/01/20 00:39:08;;;;;;;26.75;15.23;;;2.10;99.90;;;;;;5010666;28;20022;-55
2023/01/20 00:41:54;;;;;;;22.23;14.73;;;1.90;99.90;;;;;;4995914;28;20030;-57
2023/01/20 00:44:40;;;;;;;23.92;15.32;;;1.80;99.90;;;;;;5011045;28;20038;-55
2023/01/20 00:47:26;;;;;;;22.08;14.88;;;1.90;99.90;;;;;;5013302;28;20613;-54
2023/01/20 00:50:12;;;;;;;22.38;14.57;;;1.90;99.90;;;;;;5014143;28;20026;-59
2023/01/20 00:52:58;;;;;;;24.25;14.23;;;2.00;99.90;;;;;;4998889;28;20510;-57
2023/01/20 00:55:44;;;;;;;24.08;14.70;;;2.10;99.90;;;;;;5012572;28;20028;-54
2023/01/20 00:58:30;;;;;;;26.20;14.65;;;2.20;99.90;;;;;;5011119;28;20502;-54
2023/01/20 01:01:16;;;;;;;26.42;16.38;;;2.10;99.90;;;;;;5013945;28;20120;-58
2023/01/20 01:04:02;;;;;;;26.38;15.02;;;2.20;99.90;;;;;;5011289;28;20034;-56
2023/01/20 01:06:51;;;;;;;25.25;15.07;;;2.10;99.90;;;;;;5011106;28;20528;-54
2023/01/20 01:09:37;;;;;;;25.23;14.95;;;2.00;99.90;;;;;;5010114;28;20034;-57
2023/01/20 01:12:23;;;;;;;23.23;14.23;;;1.90;99.90;;;;;;5010995;28;20088;-56
2023/01/20 01:15:10;;;;;;;29.83;15.00;;;1.90;99.90;;;;;;5008348;28;20034;-53
2023/01/20 01:18:00;;;;;;;24.25;14.10;;;2.00;99.90;;;;;;5010730;28;20145;-54
2023/01/20 01:20:45;;;;;;;22.90;14.55;;;2.10;99.90;;;;;;5009078;28;20030;-53
2023/01/20 01:23:31;;;;;;;25.63;15.73;;;2.00;99.90;;;;;;4983783;28;20117;-58
2023/01/20 01:26:17;;;;;;;27.70;15.55;;;2.10;99.90;;;;;;5001290;28;20125;-56
2023/01/20 01:29:03;;;;;;;25.75;15.20;;;2.10;99.90;;;;;;5019902;28;20053;-55
2023/01/20 01:31:49;;;;;;;25.70;14.55;;;2.10;99.90;;;;;;5011246;28;20057;-58
2023/01/20 01:34:35;;;;;;;25.15;13.32;;;2.30;99.90;;;;;;5012923;28;20030;-53
2023/01/20 01:37:21;;;;;;;24.60;14.75;;;2.20;99.90;;;;;;5012094;28;20034;-53
2023/01/20 01:40:08;;;;;;;23.02;13.82;;;2.20;99.90;;;;;;4998861;28;20479;-55
2023/01/20 01:42:54;;;;;;;24.45;14.50;;;2.30;99.90;;;;;;4998388;28;20513;-53
2023/01/20 01:45:40;;;;;;;26.92;14.70;;;2.20;99.90;;;;;;5009863;28;20021;-52
2023/01/20 01:48:44;;;;;;;23.92;13.90;;;2.20;99.90;;;;;;5006933;28;20115;-55
2023/01/20 01:51:37;;;;;;;26.90;14.43;;;2.00;99.90;;;;;;5009499;28;20041;-52
2023/01/20 01:54:31;;;;;;;28.27;13.85;;;2.10;99.90;;;;;;5003128;28;20034;-52
2023/01/20 01:57:17;;;;;;;22.73;13.85;;;2.10;99.90;;;;;;5010275;28;20054;-53
2023/01/20 02:00:05;;;;;;;24.10;13.82;;;2.20;99.90;;;;;;5012754;28;20041;-56
2023/01/20 02:02:52;;;;;;;29.20;14.77;;;2.20;99.90;;;;;;4978197;28;20037;-58
2023/01/20 02:05:40;;;;;;;21.85;14.13;;;2.10;99.90;;;;;;5015124;28;20101;-54
2023/01/20 02:08:26;;;;;;;32.83;15.90;;;2.00;99.90;;;;;;5012764;28;20030;-55
2023/01/20 02:11:12;;;;;;;26.45;14.60;;;1.90;99.90;;;;;;5012513;28;20045;-57
2023/01/20 02:13:58;;;;;;;25.70;14.52;;;2.00;99.90;;;;;;5012072;28;20065;-59
2023/01/20 02:17:07;;;;;;;23.75;14.23;;;1.90;99.90;;;;;;5012531;28;20034;-55
2023/01/20 02:20:14;;;;;;;29.38;14.98;;;1.90;99.90;;;;;;5012763;28;20423;-57
2023/01/20 02:23:26;;;;;;;25.20;13.90;;;1.90;99.90;;;;;;5006212;28;20512;-57
2023/01/20 02:26:28;;;;;;;26.88;13.95;;;1.90;99.90;;;;;;5010717;28;20057;-50
2023/01/20 02:29:23;;;;;;;25.95;13.82;;;2.00;99.90;;;;;;5001935;28;20076;-55
2023/01/20 02:32:40;;;;;;;24.85;13.23;;;1.90;99.90;;;;;;5000652;28;20033;-56
2023/01/20 02:35:48;;;;;;;29.60;14.60;;;1.90;99.90;;;;;;4999880;28;20045;-58
2023/01/20 02:38:49;;;;;;;29.08;13.70;;;1.90;99.90;;;;;;5011163;28;20105;-55
2023/01/20 02:41:57;;;;;;;26.45;13.90;;;1.80;99.90;;;;;;5012114;28;20478;-57
2023/01/20 02:44:49;;;;;;;27.75;14.80;;;1.80;99.90;;;;;;5008787;28;20030;-58
2023/01/20 02:47:50;;;;;;;24.67;13.68;;;1.80;99.90;;;;;;5011860;28;20042;-57
2023/01/20 02:50:51;;;;;;;24.83;15.13;;;1.70;99.90;;;;;;5012867;28;20032;-55
2023/01/20 02:53:50;;;;;;;22.35;14.13;;;1.90;99.90;;;;;;5013601;28;20029;-58
2023/01/20 02:56:37;;;;;;;25.38;14.60;;;1.90;99.90;;;;;;5007626;28;20402;-55
2023/01/20 02:59:30;;;;;;;26.13;15.30;;;1.80;99.90;;;;;;5012040;28;20079;-57
2023/01/20 03:02:21;;;;;;;24.90;14.38;;;1.70;99.90;;;;;;4996144;28;20393;-56
2023/01/20 03:05:14;;;;;;;22.95;14.77;;;1.70;99.90;;;;;;5004424;28;20051;-56
2023/01/20 03:08:05;;;;;;;26.20;14.95;;;1.70;99.90;;;;;;5013434;28;20034;-55
2023/01/20 03:10:53;;;;;;;28.48;15.18;;;1.60;99.90;;;;;;5011288;28;20026;-55
2023/01/20 03:13:51;;;;;;;23.35;15.95;;;1.50;99.90;;;;;;5009601;28;20026;-53
2023/01/20 03:16:39;;;;;;;28.80;15.85;;;1.50;99.90;;;;;;5013091;28;20057;-54
2023/01/20 03:19:25;;;;;;;23.42;14.52;;;1.70;99.90;;;;;;5011216;28;20029;-54
2023/01/20 03:22:11;;;;;;;26.75;15.80;;;1.50;99.90;;;;;;5018020;28;20026;-50
2023/01/20 03:24:58;;;;;;;27.77;16.55;;;1.50;99.90;;;;;;4996464;28;20026;-49
2023/01/20 03:27:44;;;;;;;27.73;16.23;;;1.40;99.90;;;;;;5010161;28;20384;-53
2023/01/20 03:30:30;;;;;;;26.92;15.75;;;1.30;99.90;;;;;;5010430;28;20045;-48
2023/01/20 03:33:16;;;;;;;27.52;15.13;;;1.30;99.90;;;;;;5011016;28;20577;-53
2023/01/20 03:36:02;;;;;;;29.88;17.83;;;1.40;99.90;;;;;;5020956;28;20064;-54
2023/01/20 03:38:49;;;;;;;27.67;16.02;;;1.40;99.90;;;;;;5011424;28;20039;-57
2023/01/20 03:42:06;;;;;;;24.83;16.30;;;1.40;99.90;;;;;;5009722;28;20522;-56
2023/01/20 03:45:16;;;;;;;26.83;14.27;;;1.40;99.90;;;;;;4995287;28;20030;-56
2023/01/20 03:48:17;;;;;;;26.38;15.38;;;1.50;99.90;;;;;;5008472;28;20026;-57
2023/01/20 03:51:22;;;;;;;29.92;16.88;;;1.40;99.90;;;;;;5010112;28;20061;-54
2023/01/20 03:54:14;;;;;;;24.98;15.45;;;1.40;99.90;;;;;;5011421;28;20033;-52
2023/01/20 03:57:07;;;;;;;23.70;15.32;;;1.40;99.90;;;;;;5029348;28;20168;-54
2023/01/20 03:59:53;;;;;;;28.15;16.70;;;1.40;99.90;;;;;;5031125;28;20539;-53
2023/01/20 04:02:40;;;;;;;23.80;15.68;;;1.40;99.90;;;;;;5000030;28;20030;-54
2023/01/20 04:05:27;;;;;;;29.48;16.73;;;1.40;99.90;;;;;;4989196;28;20108;-51
2023/01/20 04:08:16;;;;;;;26.83;16.00;;;1.40;99.90;;;;;;5005730;28;20027;-50
2023/01/20 04:11:07;;;;;;;28.83;16.20;;;1.40;99.90;;;;;;4998776;28;20034;-52
2023/01/20 04:13:53;;;;;;;25.73;16.15;;;1.40;99.90;;;;;;5010192;28;20034;-52
2023/01/20 04:16:39;;;;;;;25.33;15.73;;;1.40;99.90;;;;;;5008833;28;20038;-53
2023/01/20 04:19:26;;;;;;;25.00;15.45;;;1.50;99.90;;;;;;5010060;28;20077;-51
2023/01/20 04:22:18;;;;;;;34.30;22.08;;;1.50;99.90;;;;;;5009611;28;20041;-52
2023/01/20 04:25:16;;;;;;;28.08;17.17;;;1.50;99.90;;;;;;5003459;28;20402;-56
2023/01/20 04:28:02;;;;;;;27.15;15.88;;;1.60;99.90;;;;;;4994648;28;20574;-52
2023/01/20 04:30:48;;;;;;;24.70;14.85;;;1.70;99.90;;;;;;5009673;28;20034;-52
2023/01/20 04:33:37;;;;;;;27.40;15.98;;;1.60;99.90;;;;;;5010187;28;20041;-56
2023/01/20 04:36:23;;;;;;;25.27;15.32;;;1.60;99.90;;;;;;5009563;28;20536;-57
2023/01/20 04:39:09;;;;;;;25.30;15.70;;;1.60;99.90;;;;;;5008346;28;20030;-50
2023/01/20 04:41:55;;;;;;;28.42;15.88;;;1.50;99.90;;;;;;5009925;28;20062;-51
2023/01/20 04:44:41;;;;;;;21.90;13.95;;;1.60;99.90;;;;;;5011999;28;20117;-52
2023/01/20 04:47:33;;;;;;;28.17;17.67;;;1.50;99.90;;;;;;5018690;28;20026;-56
2023/01/20 04:50:19;;;;;;;23.15;14.90;;;1.50;99.90;;;;;;4994551;28;20034;-53
2023/01/20 04:53:05;;;;;;;28.40;15.70;;;1.40;99.90;;;;;;5013854;28;20117;-54
2023/01/20 04:55:51;;;;;;;26.23;14.63;;;1.40;99.90;;;;;;5013313;28;20034;-51
2023/01/20 04:58:37;;;;;;;25.65;15.05;;;1.50;99.90;;;;;;5012611;28;20066;-54
2023/01/20 05:01:23;;;;;;;24.27;15.30;;;1.60;99.90;;;;;;5022967;28;20383;-53
2023/01/20 05:04:09;;;;;;;27.90;14.65;;;1.60;99.90;;;;;;5009930;28;20371;-49
2023/01/20 05:06:55;;;;;;;26.73;15.30;;;1.60;99.90;;;;;;5012459;28;20030;-50
2023/01/20 05:09:41;;;;;;;25.23;15.10;;;1.70;99.90;;;;;;5013417;28;20461;-53
2023/01/20 05:12:27;;;;;;;26.00;14.55;;;1.60;99.90;;;;;;5022155;28;20033;-55
2023/01/20 05:15:13;;;;;;;20.67;14.10;;;1.70;99.90;;;;;;5014186;28;20085;-54
2023/01/20 05:17:59;;;;;;;27.90;15.77;;;1.60;99.90;;;;;;5013211;28;20042;-54
2023/01/20 05:20:46;;;;;;;21.92;13.40;;;1.50;99.90;;;;;;5014587;28;20034;-53
2023/01/20 05:23:32;;;;;;;22.30;15.07;;;1.50;99.90;;;;;;5012845;28;20114;-54
2023/01/20 05:26:18;;;;;;;23.88;13.77;;;1.50;99.90;;;;;;5017549;28;20030;-55
2023/01/20 05:29:05;;;;;;;24.42;15.32;;;1.40;99.90;;;;;;5022876;28;20037;-55
2023/01/20 05:31:51;;;;;;;22.65;14.80;;;1.50;99.90;;;;;;5024841;28;20149;-58
2023/01/20 05:34:36;;;;;;;27.10;15.60;;;1.50;99.90;;;;;;5022433;28;20037;-54
2023/01/20 05:37:22;;;;;;;23.38;14.80;;;1.50;99.90;;;;;;5012903;28;20030;-50
2023/01/20 05:40:09;;;;;;;23.10;14.40;;;1.50;99.90;;;;;;5011759;28;20038;-56
2023/01/20 05:42:59;;;;;;;22.30;13.82;;;1.60;99.90;;;;;;5012429;28;20034;-51
2023/01/20 05:45:45;;;;;;;25.60;14.93;;;1.50;99.90;;;;;;4998215;28;20045;-56
2023/01/20 05:48:31;;;;;;;21.88;14.27;;;1.40;99.90;;;;;;4996940;28;20111;-55
2023/01/20 05:51:17;;;;;;;22.73;14.20;;;1.40;99.90;;;;;;5010496;28;20061;-53
2023/01/20 05:54:03;;;;;;;27.90;15.00;;;1.30;99.90;;;;;;5012577;28;20042;-51
2023/01/20 05:56:49;;;;;;;22.65;14.30;;;1.30;99.90;;;;;;5011304;28;20049;-55
2023/01/20 05:59:35;;;;;;;23.77;14.55;;;1.30;99.90;;;;;;4997076;28;20030;-54
2023/01/20 06:02:21;;;;;;;27.52;15.52;;;1.30;99.90;;;;;;5012209;28;20065;-55
2023/01/20 06:05:07;;;;;;;21.02;13.73;;;1.00;99.90;;;;;;4996707;28;20030;-53
2023/01/20 06:07:54;;;;;;;23.88;14.50;;;1.00;99.90;;;;;;5012173;28;20026;-55
2023/01/20 06:10:40;;;;;;;22.17;13.23;;;1.00;99.90;;;;;;5011296;28;20191;-55
2023/01/20 06:13:26;;;;;;;25.77;15.23;;;1.00;99.90;;;;;;4997468;28;20502;-57
2023/01/20 06:16:12;;;;;;;21.80;15.48;;;1.00;99.90;;;;;;5010813;28;20029;-51
2023/01/20 06:18:58;;;;;;;26.95;15.65;;;0.80;99.90;;;;;;5018676;28;20037;-52
2023/01/20 06:21:46;;;;;;;25.27;15.32;;;0.80;99.90;;;;;;5010473;28;20030;-54
2023/01/20 06:24:32;;;;;;;24.85;15.52;;;0.80;99.90;;;;;;5010193;28;20036;-56
2023/01/20 06:27:18;;;;;;;25.20;15.02;;;0.90;99.90;;;;;;5011435;28;20108;-50
2023/01/20 06:30:05;;;;;;;23.08;15.60;;;0.90;99.90;;;;;;5011024;28;20029;-56
2023/01/20 06:32:53;;;;;;;25.70;15.15;;;1.00;99.90;;;;;;5012088;28;20041;-55
2023/01/20 06:35:39;;;;;;;23.90;15.63;;;0.90;99.90;;;;;;5014459;28;20513;-54
2023/01/20 06:38:28;;;;;;;25.98;14.18;;;1.00;99.90;;;;;;5015063;28;20021;-51
2023/01/20 06:41:15;;;;;;;25.00;15.13;;;1.10;99.90;;;;;;5009789;28;20497;-53
2023/01/20 06:44:01;;;;;;;32.00;15.55;;;1.10;99.90;;;;;;5010068;28;20034;-54
2023/01/20 06:46:47;;;;;;;31.08;16.80;;;1.10;99.90;;;;;;5012093;28;20030;-56
2023/01/20 06:49:33;;;;;;;39.40;17.35;;;1.00;99.90;;;;;;5012048;28;20032;-49
2023/01/20 06:52:19;;;;;;;62.67;20.80;;;1.10;99.90;;;;;;5009880;28;20034;-54
2023/01/20 06:55:05;;;;;;;29.70;16.95;;;1.10;99.90;;;;;;5010421;28;20065;-57
2023/01/20 06:57:51;;;;;;;22.65;15.55;;;1.10;99.90;;;;;;5003570;28;20061;-52
2023/01/20 07:00:36;;;;;;;25.15;16.55;;;1.00;99.90;;;;;;5012097;28;20116;-58
2023/01/20 07:03:23;;;;;;;42.63;17.55;;;1.00;99.90;;;;;;5017674;28;20018;-56
2023/01/20 07:06:25;;;;;;;45.53;20.58;;;1.00;99.90;;;;;;5022708;28;20066;-55
2023/01/20 07:09:11;;;;;;;37.10;19.75;;;1.10;99.90;;;;;;5009155;28;20105;-54
2023/01/20 07:11:57;;;;;;;36.42;17.27;;;1.20;99.90;;;;;;5011395;28;20030;-55
2023/01/20 07:14:43;;;;;;;34.88;17.15;;;1.30;99.90;;;;;;5010271;28;20038;-54
2023/01/20 07:17:29;;;;;;;27.55;15.48;;;1.30;99.90;;;;;;5014064;28;20092;-54
2023/01/20 07:20:15;;;;;;;24.92;15.77;;;1.30;99.90;;;;;;5023695;28;20085;-55
2023/01/20 07:23:02;;;;;;;37.22;17.77;;;1.30;99.90;;;;;;5026959;28;20026;-53
2023/01/20 07:26:00;;;;;;;26.90;17.13;;;1.30;99.90;;;;;;5012232;28;20056;-53
2023/01/20 07:28:47;;;;;;;22.52;16.10;;;1.30;99.90;;;;;;5032484;28;20026;-50
2023/01/20 07:31:33;;;;;;;25.38;16.08;;;1.30;99.90;;;;;;5017204;28;20017;-53
2023/01/20 07:34:19;;;;;;;28.90;17.02;;;1.40;99.90;;;;;;5015256;28;20022;-55
2023/01/20 07:37:05;;;;;;;28.30;16.85;;;1.40;99.90;;;;;;5009076;28;20478;-55
2023/01/20 07:39:51;;;;;;;30.80;16.65;;;1.40;99.90;;;;;;5020592;28;20069;-56
2023/01/20 07:42:37;;;;;;;32.40;16.83;;;1.40;99.90;;;;;;5029449;28;20026;-57
2023/01/20 07:45:23;;;;;;;31.83;18.40;;;1.40;99.90;;;;;;5020089;28;20034;-58
2023/01/20 07:48:09;;;;;;;33.85;19.05;;;1.40;99.90;;;;;;5003041;28;20465;-56
2023/01/20 07:51:04;;;;;;;37.35;18.75;;;1.40;99.90;;;;;;5009204;28;20034;-58
2023/01/20 07:53:50;;;;;;;22.60;15.75;;;1.40;99.90;;;;;;5004978;28;20034;-57
2023/01/20 07:56:36;;;;;;;36.42;18.10;;;1.60;99.90;;;;;;4995621;28;20042;-54
2023/01/20 07:59:22;;;;;;;37.15;16.98;;;1.70;99.90;;;;;;5010444;28;20038;-56
2023/01/20 08:02:09;;;;;;;27.00;16.23;;;1.70;99.90;;;;;;4995303;28;20053;-54
2023/01/20 08:04:55;;;;;;;33.10;15.90;;;1.60;99.90;;;;;;5020419;28;20084;-59
2023/01/20 08:07:41;;;;;;;25.55;16.63;;;1.60;99.90;;;;;;4989640;28;20031;-53
2023/01/20 08:10:28;;;;;;;29.15;16.27;;;1.50;99.90;;;;;;5014141;28;20017;-50
2023/01/20 08:13:13;;;;;;;28.90;16.60;;;1.60;99.90;;;;;;5015343;28;20506;-51
2023/01/20 08:16:05;;;;;;;24.35;16.30;;;1.60;99.90;;;;;;5015409;28;20093;-50
2023/01/20 08:18:53;;;;;;;24.75;15.50;;;1.60;99.90;;;;;;5017841;28;20036;-53
2023/01/20 08:21:39;;;;;;;26.23;16.52;;;1.60;99.90;;;;;;5014710;28;20025;-58
2023/01/20 08:24:25;;;;;;;25.33;15.48;;;1.60;99.90;;;;;;5001925;28;20121;-56
2023/01/20 08:27:11;;;;;;;27.08;16.27;;;1.60;99.90;;;;;;5013866;28;20030;-56
2023/01/20 08:29:57;;;;;;;29.08;16.98;;;1.60;99.90;;;;;;4985742;28;20034;-56
2023/01/20 08:32:43;;;;;;;28.48;16.50;;;1.60;99.90;;;;;;5018013;28;20045;-54
2023/01/20 08:35:29;;;;;;;40.22;16.63;;;1.70;99.90;;;;;;5008720;28;20021;-54
2023/01/20 08:38:15;;;;;;;28.08;16.77;;;1.70;99.90;;;;;;5021255;28;20030;-57
2023/01/20 08:41:04;;;;;;;30.48;15.73;;;1.90;99.90;;;;;;4998654;28;20078;-60
2023/01/20 08:43:50;;;;;;;30.00;17.60;;;1.80;99.90;;;;;;5015615;28;20113;-55
2023/01/20 08:46:38;;;;;;;25.67;15.30;;;1.90;99.90;;;;;;5010523;28;20422;-51
2023/01/20 08:49:24;;;;;;;28.73;16.08;;;1.80;99.90;;;;;;5000852;28;20109;-57
2023/01/20 08:52:10;;;;;;;26.55;15.75;;;1.90;99.90;;;;;;5011539;28;20033;-57
2023/01/20 08:54:57;;;;;;;29.77;15.93;;;1.90;99.90;;;;;;5021549;28;20402;-58
2023/01/20 08:57:44;;;;;;;31.77;17.13;;;1.70;99.90;;;;;;5002883;28;20029;-54
2023/01/20 09:00:30;;;;;;;25.88;16.42;;;1.80;99.90;;;;;;5012099;28;20068;-55
2023/01/20 09:03:16;;;;;;;26.08;17.05;;;1.80;99.90;;;;;;5003115;28;20064;-56
2023/01/20 09:06:03;;;;;;;28.20;17.52;;;1.90;99.90;;;;;;5006690;28;20022;-57
2023/01/20 09:08:58;;;;;;;27.17;16.40;;;2.00;99.90;;;;;;5013571;28;20038;-58
2023/01/20 09:11:49;;;;;;;26.02;15.40;;;2.00;99.90;;;;;;4997578;28;20033;-53
2023/01/20 09:14:35;;;;;;;30.05;17.95;;;2.10;99.90;;;;;;4999957;28;20663;-58
2023/01/20 09:17:21;;;;;;;24.23;16.98;;;1.80;99.90;;;;;;5018213;28;20576;-52
2023/01/20 09:20:10;;;;;;;24.23;16.83;;;1.80;99.90;;;;;;5011945;28;20645;-57
2023/01/20 09:23:01;;;;;;;30.50;17.17;;;1.70;99.90;;;;;;4998492;28;20486;-52
2023/01/20 09:25:47;;;;;;;31.80;18.20;;;1.70;99.90;;;;;;5009737;28;20061;-58
2023/01/20 09:28:34;;;;;;;29.10;18.10;;;1.70;99.90;;;;;;5011695;28;20092;-50
2023/01/20 09:31:20;;;;;;;28.70;18.27;;;1.60;99.90;;;;;;5009014;28;20498;-54
2023/01/20 09:34:06;;;;;;;25.00;17.52;;;1.60;99.90;;;;;;4997427;28;20477;-57
2023/01/20 09:43:55;;;;;;;26.25;17.02;;;1.60;99.90;;;;;;5009578;28;20026;-53
2023/01/20 09:47:18;;;;;;;26.33;17.25;;;1.50;99.90;;;;;;4993686;28;20026;-51
2023/01/20 09:53:40;;;;;;;30.13;17.15;;;1.50;99.90;;;;;;5012178;28;20455;-56
2023/01/20 09:56:29;;;;;;;26.25;17.15;;;1.40;99.90;;;;;;5009427;28;20084;-54
2023/01/20 09:59:58;;;;;;;27.83;17.98;;;1.70;99.90;;;;;;5011721;28;20040;-53
2023/01/20 10:02:51;;;;;;;29.95;17.70;;;1.90;99.90;;;;;;5009629;28;20101;-56
2023/01/20 10:05:38;;;;;;;26.17;18.02;;;2.10;99.90;;;;;;5011635;28;20093;-56
2023/01/20 10:08:45;;;;;;;29.25;18.17;;;1.90;99.90;;;;;;4997669;28;20045;-58
2023/01/20 10:11:39;;;;;;;33.65;18.95;;;2.00;99.90;;;;;;5004140;28;20489;-56
2023/01/20 10:14:34;;;;;;;30.42;18.25;;;2.10;99.90;;;;;;5018337;28;20029;-49
2023/01/20 10:17:26;;;;;;;30.17;18.08;;;2.20;99.90;;;;;;5007848;28;20022;-57
2023/01/20 10:20:19;;;;;;;26.17;16.58;;;2.40;99.90;;;;;;5020815;28;20041;-56
2023/01/20 10:23:46;;;;;;;32.05;18.73;;;2.60;99.90;;;;;;5013420;28;20022;-58
2023/01/20 10:26:47;;;;;;;;;;;2.70;99.90;;;;;;5009411;28;20033;-53
2023/01/20 10:29:36;;;;;;;27.13;17.05;;;2.70;99.90;;;;;;5016197;28;19920;-50
2023/01/20 10:32:31;;;;;;;30.55;18.35;;;2.80;99.90;;;;;;5001734;28;20108;-51
2023/01/20 10:35:24;;;;;;;27.83;17.05;;;2.90;99.90;;;;;;5010136;28;20298;-53
2023/01/20 10:38:25;;;;;;;31.02;17.52;;;2.90;99.90;;;;;;5010519;28;20034;-64
2023/01/20 10:41:30;;;;;;;30.02;17.38;;;3.00;99.90;;;;;;5012279;28;20029;-58
2023/01/20 10:44:16;;;;;;;26.33;16.98;;;2.90;99.90;;;;;;4993368;28;20395;-55
2023/01/20 10:47:17;;;;;;;24.80;16.85;;;3.10;99.90;;;;;;4982289;28;20113;-52
2023/01/20 10:50:31;;;;;;;30.00;19.55;;;3.00;99.90;;;;;;5013350;28;20022;-53
2023/01/20 10:53:46;;;;;;;29.85;18.05;;;3.20;99.90;;;;;;5012335;28;20034;-51
2023/01/20 10:56:37;;;;;;;26.13;17.15;;;3.20;99.90;;;;;;5011497;28;20030;-51
2023/01/20 10:59:49;;;;;;;32.03;17.15;;;3.10;99.90;;;;;;5011505;28;20026;-54
2023/01/20 11:02:36;;;;;;;29.05;17.88;;;2.90;99.90;;;;;;5012750;28;20033;-58
2023/01/20 11:05:28;;;;;;;25.95;17.08;;;3.00;99.90;;;;;;5031005;28;20029;-56
2023/01/20 11:08:21;;;;;;;22.95;15.95;;;3.30;99.90;;;;;;5016980;28;20033;-62
2023/01/20 11:11:14;;;;;;;26.48;16.83;;;3.50;99.90;;;;;;4992020;28;20034;-53
2023/01/20 11:14:00;;;;;;;27.52;17.85;;;3.50;99.90;;;;;;5011642;28;20045;-55
2023/01/20 11:16:53;;;;;;;28.70;18.15;;;3.50;99.90;;;;;;5010983;28;20034;-57
2023/01/20 11:19:54;;;;;;;30.88;16.60;;;3.60;99.90;;;;;;4994706;28;20069;-57
2023/01/20 11:22:46;;;;;;;29.27;17.75;;;3.60;99.90;;;;;;5010211;28;20057;-57
2023/01/20 11:25:32;;;;;;;28.63;18.25;;;3.10;99.90;;;;;;5009771;28;20028;-55
2023/01/20 11:28:19;;;;;;;30.17;17.92;;;3.30;99.90;;;;;;4995565;28;20379;-60
2023/01/20 11:31:05;;;;;;;32.83;19.85;;;3.10;99.90;;;;;;5010591;28;20092;-53
2023/01/20 11:33:55;;;;;;;29.10;19.00;;;3.10;99.90;;;;;;5018355;28;20099;-54
2023/01/20 11:36:41;;;;;;;24.95;17.73;;;3.20;99.90;;;;;;5030141;28;20072;-52
2023/01/20 11:39:44;;;;;;;27.63;17.92;;;3.20;99.90;;;;;;5010365;28;20038;-56
2023/01/20 11:42:44;;;;;;;29.27;17.90;;;3.20;99.90;;;;;;5010485;28;20390;-59
2023/01/20 11:45:34;;;;;;;30.83;18.30;;;3.10;99.90;;;;;;5010830;28;20127;-59
2023/01/20 11:48:20;;;;;;;27.33;17.35;;;2.80;99.90;;;;;;5010540;28;20109;-59
2023/01/20 11:51:23;;;;;;;27.52;17.45;;;3.00;99.90;;;;;;4991333;28;20082;-59
2023/01/20 11:54:16;;;;;;;27.25;17.88;;;3.10;99.90;;;;;;5002735;28;20038;-60
2023/01/20 11:57:06;;;;;;;28.52;18.23;;;3.00;99.90;;;;;;5014136;28;20061;-62
2023/01/20 11:59:52;;;;;;;28.50;16.92;;;3.10;99.90;;;;;;5015757;28;20161;-55
2023/01/20 12:02:40;;;;;;;27.85;17.15;;;3.20;99.90;;;;;;5000550;28;20119;-58
2023/01/20 12:05:42;;;;;;;28.75;18.48;;;3.00;99.90;;;;;;5030608;28;20069;-60
2023/01/20 12:08:36;;;;;;;26.08;16.80;;;3.10;99.90;;;;;;5003540;28;20022;-59
2023/01/20 12:11:33;;;;;;;27.50;17.05;;;3.00;99.90;;;;;;5011188;28;20478;-54
2023/01/20 12:14:31;;;;;;;26.35;16.02;;;3.20;99.90;;;;;;5014674;28;20030;-56
2023/01/20 12:17:34;;;;;;;29.60;17.75;;;3.20;99.90;;;;;;5014806;28;20084;-57
2023/01/20 12:20:48;;;;;;;26.15;17.15;;;3.40;99.90;;;;;;5014295;28;20060;-58
2023/01/20 12:23:49;;;;;;;29.83;15.68;;;2.90;99.90;;;;;;5000476;28;20058;-57
2023/01/20 12:26:35;;;;;;;25.50;16.70;;;3.10;99.90;;;;;;5013043;28;20070;-58
2023/01/20 12:29:30;;;;;;;25.27;16.42;;;3.20;99.90;;;;;;5013948;28;20034;-55
2023/01/20 12:32:16;;;;;;;24.50;15.68;;;3.40;99.90;;;;;;5014527;28;20030;-55
2023/01/20 12:35:02;;;;;;;20.05;14.82;;;3.40;99.90;;;;;;5013419;28;20038;-58
2023/01/20 12:37:59;;;;;;;24.73;15.90;;;3.50;99.90;;;;;;5014110;28;20025;-57
2023/01/20 12:40:50;;;;;;;24.25;15.35;;;3.70;99.90;;;;;;4998908;28;20022;-57
2023/01/20 12:44:03;;;;;;;24.33;15.20;;;3.80;99.90;;;;;;4999642;28;20033;-53
2023/01/20 12:47:30;;;;;;;22.05;14.57;;;4.00;99.90;;;;;;5013439;28;20037;-50
2023/01/20 12:50:46;;;;;;;23.80;16.05;;;4.00;99.90;;;;;;5002355;28;20037;-52
2023/01/20 12:53:50;;;;;;;31.95;16.52;;;3.80;99.90;;;;;;5014196;28;20029;-60
2023/01/20 12:57:01;;;;;;;21.55;15.95;;;3.80;99.90;;;;;;5013294;28;20032;-57
2023/01/20 13:00:00;;;;;;;24.92;15.35;;;3.80;99.90;;;;;;5013952;28;20033;-54
2023/01/20 13:02:49;;;;;;;25.63;15.25;;;4.10;99.90;;;;;;5003198;28;20024;-59
2023/01/20 13:06:04;;;;;;;20.75;14.75;;;4.10;99.90;;;;;;5012973;28;20088;-54
2023/01/20 13:09:03;;;;;;;20.38;15.00;;;4.30;99.90;;;;;;5013165;28;20395;-54
2023/01/20 13:12:10;;;;;;;23.45;14.60;;;4.60;99.90;;;;;;5013745;28;20022;-56
2023/01/20 13:15:58;;;;;;;23.25;15.95;;;4.80;99.90;;;;;;5012213;28;20029;-59
2023/01/20 13:18:53;;;;;;;20.80;14.18;;;5.00;99.90;;;;;;4931278;28;20426;-55
2023/01/20 13:21:40;;;;;;;21.35;14.60;;;5.20;99.90;;;;;;5012494;28;20061;-59
2023/01/20 13:24:29;;;;;;;19.13;12.88;;;5.30;99.60;;;;;;5012427;28;20083;-54
2023/01/20 13:27:28;;;;;;;22.63;13.57;;;5.40;99.10;;;;;;5010447;28;20034;-60
2023/01/20 13:30:46;;;;;;;23.83;12.60;;;5.40;98.70;;;;;;5011515;28;20042;-55
2023/01/20 13:33:36;;;;;;;18.98;11.30;;;5.40;98.30;;;;;;5012548;28;20112;-54
2023/01/20 13:36:23;;;;;;;22.83;12.27;;;5.40;97.40;;;;;;5012242;28;20033;-57
2023/01/20 13:39:28;;;;;;;14.15;10.93;;;5.50;96.70;;;;;;5013518;28;20045;-57
2023/01/20 13:42:35;;;;;;;16.67;11.77;;;5.30;96.90;;;;;;5015200;28;20028;-58
2023/01/20 13:45:21;;;;;;;20.95;12.55;;;5.20;97.20;;;;;;5015964;28;20128;-56
2023/01/20 13:48:08;;;;;;;17.13;11.38;;;5.10;97.10;;;;;;5001108;28;20032;-56
2023/01/20 13:50:54;;;;;;;16.27;10.10;;;5.10;96.90;;;;;;5017941;28;20112;-58
2023/01/20 13:53:40;;;;;;;26.45;16.85;;;4.90;97.20;;;;;;5016234;28;20030;-59
2023/01/20 13:56:31;;;;;;;20.48;12.40;;;4.70;97.70;;;;;;5014608;28;20108;-57
2023/01/20 13:59:17;;;;;;;15.95;11.68;;;4.70;97.40;;;;;;5014857;28;20029;-54
2023/01/20 14:02:21;;;;;;;19.65;11.90;;;4.50;97.70;;;;;;5012981;28;20023;-56
2023/01/20 14:05:28;;;;;;;16.92;11.43;;;4.50;97.80;;;;;;5013073;28;20022;-60
2023/01/20 14:08:14;;;;;;;21.20;13.38;;;4.40;98.00;;;;;;5012969;28;20513;-57
2023/01/20 14:11:09;;;;;;;19.33;12.20;;;4.40;98.10;;;;;;4998674;28;20127;-57
2023/01/20 14:14:04;;;;;;;21.75;11.50;;;4.30;98.50;;;;;;5013763;28;20037;-57
2023/01/20 14:16:50;;;;;;;16.08;11.48;;;4.30;98.20;;;;;;5012814;28;20072;-58
2023/01/20 14:19:38;;;;;;;20.20;12.10;;;4.30;97.90;;;;;;5013352;28;20057;-53
2023/01/20 14:22:26;;;;;;;18.48;12.25;;;4.30;97.90;;;;;;4994000;28;20443;-55
2023/01/20 14:25:39;;;;;;;20.08;12.25;;;4.30;97.80;;;;;;4991220;28;20030;-58
2023/01/20 14:28:25;;;;;;;20.73;12.05;;;4.30;98.00;;;;;;4993049;28;20153;-54
2023/01/20 14:31:27;;;;;;;22.42;12.32;;;4.40;97.90;;;;;;4992899;28;20054;-57
2023/01/20 14:34:18;;;;;;;20.13;10.88;;;4.30;97.80;;;;;;4978993;28;20063;-57
2023/01/20 14:37:26;;;;;;;19.17;11.70;;;4.20;97.50;;;;;;4992033;28;20031;-58
2023/01/20 14:40:29;;;;;;;22.15;11.43;;;4.30;97.70;;;;;;4991147;28;20026;-58
2023/01/20 14:43:21;;;;;;;27.55;13.18;;;4.40;98.00;;;;;;4991645;28;20026;-59
2023/01/20 14:46:07;;;;;;;20.40;12.88;;;4.50;98.10;;;;;;4991580;28;20110;-52
2023/01/20 14:48:55;;;;;;;22.17;14.05;;;4.70;98.00;;;;;;5009325;28;20026;-58
2023/01/20 14:51:42;;;;;;;24.13;13.15;;;4.70;97.60;;;;;;5010498;28;20032;-56